sensor_id;sensor_type;location;lat;lon;timestamp;pressure;altitude;pressure_sealevel;temperature;humidity
57452;BME280;66031;51.224;-0.164;2023-04-01T00:01:13;99033.82;;;17.91;38.23
57452;BME280;66031;51.224;-0.164;2023-04-01T00:03:36;99039.85;;;17.69;38.21
57452;BME280;66031;51.224;-0.164;2023-04-01T00:06:01;99039.29;;;17.66;38.21
57452;BME280;66031;51.224;-0.164;2023-04-01T00:08:27;99040.00;;;17.93;38.16
57452;BME280;66031;51.224;-0.164;2023-04-01T00:10:52;99047.76;;;17.91;38.16
57452;BME280;66031;51.224;-0.164;2023-04-01T00:13:17;99047.60;;;17.93;38.10
57452;BME280;66031;51.224;-0.164;2023-04-01T00:15:43;99052.04;;;17.89;38.11
57452;BME280;66031;51.224;-0.164;2023-04-01T00:18:07;99051.82;;;17.79;37.95
57452;BME280;66031;51.224;-0.164;2023-04-01T00:20:33;99056.34;;;18.02;37.92
57452;BME280;66031;51.224;-0.164;2023-04-01T00:22:58;99058.78;;;17.94;38.01
57452;BME280;66031;51.224;-0.164;2023-04-01T00:25:23;99063.05;;;17.89;38.05
57452;BME280;66031;51.224;-0.164;2023-04-01T00:27:49;99063.29;;;17.57;38.15
57452;BME280;66031;51.224;-0.164;2023-04-01T00:30:14;99065.90;;;17.63;38.05
57452;BME280;66031;51.224;-0.164;2023-04-01T00:32:39;99066.87;;;17.88;38.02
57452;BME280;66031;51.224;-0.164;2023-04-01T00:35:05;99069.01;;;17.86;38.03
57452;BME280;66031;51.224;-0.164;2023-04-01T00:37:30;99070.26;;;17.80;38.07
57452;BME280;66031;51.224;-0.164;2023-04-01T00:39:56;99072.85;;;17.81;38.05
57452;BME280;66031;51.224;-0.164;2023-04-01T00:42:21;99079.48;;;17.76;38.12
57452;BME280;66031;51.224;-0.164;2023-04-01T00:44:50;99078.38;;;18.02;38.06
57452;BME280;66031;51.224;-0.164;2023-04-01T00:47:11;99082.43;;;17.63;37.94
57452;BME280;66031;51.224;-0.164;2023-04-01T00:49:38;99082.58;;;17.61;37.94
57452;BME280;66031;51.224;-0.164;2023-04-01T00:52:03;99080.99;;;17.80;37.98
57452;BME280;66031;51.224;-0.164;2023-04-01T00:54:29;99088.69;;;17.63;37.86
57452;BME280;66031;51.224;-0.164;2023-04-01T00:56:55;99089.12;;;17.81;37.92
57452;BME280;66031;51.224;-0.164;2023-04-01T00:59:22;99091.38;;;17.83;37.89
57452;BME280;66031;51.224;-0.164;2023-04-01T01:01:43;99097.87;;;17.78;37.94
57452;BME280;66031;51.224;-0.164;2023-04-01T01:04:21;99100.10;;;17.76;37.98
57452;BME280;66031;51.224;-0.164;2023-04-01T01:06:42;99109.06;;;17.81;37.88
57452;BME280;66031;51.224;-0.164;2023-04-01T01:09:10;99112.29;;;17.78;37.88
57452;BME280;66031;51.224;-0.164;2023-04-01T01:11:31;99114.74;;;17.80;37.86
57452;BME280;66031;51.224;-0.164;2023-04-01T01:13:55;99119.94;;;17.84;37.80
57452;BME280;66031;51.224;-0.164;2023-04-01T01:16:19;99115.05;;;17.77;37.87
57452;BME280;66031;51.224;-0.164;2023-04-01T01:18:43;99118.27;;;17.45;37.65
57452;BME280;66031;51.224;-0.164;2023-04-01T01:23:50;99123.28;;;17.55;37.79
57452;BME280;66031;51.224;-0.164;2023-04-01T01:28:30;99127.70;;;17.48;37.86
57452;BME280;66031;51.224;-0.164;2023-04-01T01:30:51;99133.92;;;17.51;37.80
57452;BME280;66031;51.224;-0.164;2023-04-01T01:33:25;99137.99;;;17.72;37.83
57452;BME280;66031;51.224;-0.164;2023-04-01T01:35:39;99142.43;;;17.46;37.84
57452;BME280;66031;51.224;-0.164;2023-04-01T01:38:04;99146.19;;;17.74;37.77
57452;BME280;66031;51.224;-0.164;2023-04-01T01:40:29;99149.37;;;17.76;37.77
57452;BME280;66031;51.224;-0.164;2023-04-01T01:42:56;99146.29;;;17.27;37.78
57452;BME280;66031;51.224;-0.164;2023-04-01T01:45:21;99149.56;;;17.63;37.61
57452;BME280;66031;51.224;-0.164;2023-04-01T01:47:43;99152.99;;;17.78;37.67
57452;BME280;66031;51.224;-0.164;2023-04-01T01:50:09;99156.31;;;17.72;37.73
57452;BME280;66031;51.224;-0.164;2023-04-01T01:52:34;99163.29;;;17.73;37.69
57452;BME280;66031;51.224;-0.164;2023-04-01T01:54:59;99165.85;;;17.65;37.80
57452;BME280;66031;51.224;-0.164;2023-04-01T01:57:26;99168.68;;;17.61;37.86
57452;BME280;66031;51.224;-0.164;2023-04-01T01:59:51;99170.32;;;17.59;37.89
57452;BME280;66031;51.224;-0.164;2023-04-01T02:02:16;99170.27;;;17.39;37.82
57452;BME280;66031;51.224;-0.164;2023-04-01T02:04:43;99174.96;;;17.58;37.87
57452;BME280;66031;51.224;-0.164;2023-04-01T02:07:10;99175.34;;;17.56;37.87
57452;BME280;66031;51.224;-0.164;2023-04-01T02:09:31;99175.58;;;17.54;37.88
57452;BME280;66031;51.224;-0.164;2023-04-01T02:11:58;99177.79;;;17.65;37.71
57452;BME280;66031;51.224;-0.164;2023-04-01T02:14:23;99180.05;;;17.66;37.68
57452;BME280;66031;51.224;-0.164;2023-04-01T02:16:52;99182.61;;;17.72;37.63
57452;BME280;66031;51.224;-0.164;2023-04-01T02:19:13;99186.68;;;17.85;37.43
57452;BME280;66031;51.224;-0.164;2023-04-01T02:21:39;99187.67;;;17.69;37.60
57452;BME280;66031;51.224;-0.164;2023-04-01T02:24:06;99188.74;;;17.70;37.56
57452;BME280;66031;51.224;-0.164;2023-04-01T02:26:29;99189.70;;;17.64;37.67
57452;BME280;66031;51.224;-0.164;2023-04-01T02:28:54;99193.82;;;17.54;37.78
57452;BME280;66031;51.224;-0.164;2023-04-01T02:31:19;99192.68;;;17.29;37.80
57452;BME280;66031;51.224;-0.164;2023-04-01T02:33:45;99198.72;;;17.50;37.80
57452;BME280;66031;51.224;-0.164;2023-04-01T02:36:11;99200.09;;;17.55;37.73
57452;BME280;66031;51.224;-0.164;2023-04-01T02:38:36;99201.08;;;17.55;37.74
57452;BME280;66031;51.224;-0.164;2023-04-01T02:41:03;99206.09;;;17.50;37.80
57452;BME280;66031;51.224;-0.164;2023-04-01T02:43:26;99207.02;;;17.52;37.75
57452;BME280;66031;51.224;-0.164;2023-04-01T02:45:51;99211.77;;;17.47;37.83
57452;BME280;66031;51.224;-0.164;2023-04-01T02:48:16;99211.32;;;17.75;37.74
57452;BME280;66031;51.224;-0.164;2023-04-01T02:50:41;99212.65;;;17.73;37.74
57452;BME280;66031;51.224;-0.164;2023-04-01T02:53:07;99212.72;;;17.45;37.79
57452;BME280;66031;51.224;-0.164;2023-04-01T02:55:32;99217.13;;;17.49;37.74
57452;BME280;66031;51.224;-0.164;2023-04-01T02:57:58;99216.28;;;17.48;37.76
57452;BME280;66031;51.224;-0.164;2023-04-01T03:00:23;99211.96;;;17.45;37.77
57452;BME280;66031;51.224;-0.164;2023-04-01T03:02:48;99215.05;;;17.73;37.72
57452;BME280;66031;51.224;-0.164;2023-04-01T03:05:13;99216.02;;;17.42;37.81
57452;BME280;66031;51.224;-0.164;2023-04-01T03:07:38;99216.73;;;17.41;37.81
57452;BME280;66031;51.224;-0.164;2023-04-01T03:10:05;99221.92;;;17.45;37.74
57452;BME280;66031;51.224;-0.164;2023-04-01T03:12:29;99229.18;;;17.43;37.77
57452;BME280;66031;51.224;-0.164;2023-04-01T03:14:55;99228.37;;;17.43;37.73
57452;BME280;66031;51.224;-0.164;2023-04-01T03:17:20;99229.61;;;17.25;37.64
57452;BME280;66031;51.224;-0.164;2023-04-01T03:19:45;99232.13;;;17.82;37.49
57452;BME280;66031;51.224;-0.164;2023-04-01T03:22:11;99237.44;;;17.74;37.59
57452;BME280;66031;51.224;-0.164;2023-04-01T03:24:36;99238.24;;;17.41;37.69
57452;BME280;66031;51.224;-0.164;2023-04-01T03:27:01;99241.25;;;17.41;37.71
57452;BME280;66031;51.224;-0.164;2023-04-01T03:29:26;99245.69;;;17.38;37.73
57452;BME280;66031;51.224;-0.164;2023-04-01T03:31:52;99248.46;;;17.59;37.77
57452;BME280;66031;51.224;-0.164;2023-04-01T03:34:17;99251.76;;;17.35;37.74
57452;BME280;66031;51.224;-0.164;2023-04-01T03:36:42;99253.67;;;17.63;37.67
57452;BME280;66031;51.224;-0.164;2023-04-01T03:39:08;99254.33;;;17.34;37.74
57452;BME280;66031;51.224;-0.164;2023-04-01T03:41:35;99255.47;;;17.34;37.72
57452;BME280;66031;51.224;-0.164;2023-04-01T03:43:58;99262.62;;;17.33;37.74
57452;BME280;66031;51.224;-0.164;2023-04-01T03:46:24;99260.45;;;17.42;37.63
57452;BME280;66031;51.224;-0.164;2023-04-01T03:48:49;99264.15;;;17.62;37.66
57452;BME280;66031;51.224;-0.164;2023-04-01T03:51:14;99268.25;;;17.31;37.73
57452;BME280;66031;51.224;-0.164;2023-04-01T03:53:40;99266.85;;;17.28;37.77
57452;BME280;66031;51.224;-0.164;2023-04-01T03:56:06;99270.02;;;17.78;37.76
57452;BME280;66031;51.224;-0.164;2023-04-01T03:58:30;99273.55;;;17.35;37.66
57452;BME280;66031;51.224;-0.164;2023-04-01T04:00:55;99277.66;;;17.33;37.70
57452;BME280;66031;51.224;-0.164;2023-04-01T04:03:21;99282.43;;;17.84;37.65
57452;BME280;66031;51.224;-0.164;2023-04-01T04:05:46;99284.70;;;17.29;37.72
57452;BME280;66031;51.224;-0.164;2023-04-01T04:08:11;99288.69;;;17.56;37.68
57452;BME280;66031;51.224;-0.164;2023-04-01T04:10:37;99290.75;;;17.27;37.74
57452;BME280;66031;51.224;-0.164;2023-04-01T04:13:02;99294.56;;;17.56;37.67
57452;BME280;66031;51.224;-0.164;2023-04-01T04:15:27;99295.72;;;17.33;37.65
57452;BME280;66031;51.224;-0.164;2023-04-01T04:17:53;99297.85;;;17.40;37.57
57452;BME280;66031;51.224;-0.164;2023-04-01T04:20:18;99299.15;;;17.44;37.47
57452;BME280;66031;51.224;-0.164;2023-04-01T04:22:43;99302.85;;;17.61;37.55
57452;BME280;66031;51.224;-0.164;2023-04-01T04:25:09;99303.17;;;17.36;37.59
57452;BME280;66031;51.224;-0.164;2023-04-01T04:27:34;99306.95;;;17.27;37.64
57452;BME280;66031;51.224;-0.164;2023-04-01T04:29:59;99310.24;;;17.26;37.68
57452;BME280;66031;51.224;-0.164;2023-04-01T04:32:24;99311.24;;;17.24;37.71
57452;BME280;66031;51.224;-0.164;2023-04-01T04:34:50;99313.61;;;17.27;37.64
57452;BME280;66031;51.224;-0.164;2023-04-01T04:37:16;99312.91;;;17.47;37.71
57452;BME280;66031;51.224;-0.164;2023-04-01T04:39:40;99317.64;;;17.25;37.66
57452;BME280;66031;51.224;-0.164;2023-04-01T04:42:06;99319.67;;;17.44;37.70
57452;BME280;66031;51.224;-0.164;2023-04-01T04:44:31;99320.60;;;17.22;37.67
57452;BME280;66031;51.224;-0.164;2023-04-01T04:46:56;99324.70;;;17.29;37.58
57452;BME280;66031;51.224;-0.164;2023-04-01T04:49:22;99325.17;;;17.29;37.58
57452;BME280;66031;51.224;-0.164;2023-04-01T04:51:47;99326.79;;;17.27;37.58
57452;BME280;66031;51.224;-0.164;2023-04-01T04:54:12;99331.09;;;17.27;37.59
57452;BME280;66031;51.224;-0.164;2023-04-01T04:56:38;99335.20;;;17.22;37.62
57452;BME280;66031;51.224;-0.164;2023-04-01T04:59:03;99337.03;;;17.15;37.71
57452;BME280;66031;51.224;-0.164;2023-04-01T05:01:29;99338.30;;;17.19;37.63
57452;BME280;66031;51.224;-0.164;2023-04-01T05:03:54;99341.75;;;17.18;37.63
57452;BME280;66031;51.224;-0.164;2023-04-01T05:06:20;99345.42;;;17.14;37.67
57452;BME280;66031;51.224;-0.164;2023-04-01T05:08:45;99346.62;;;17.21;37.58
57452;BME280;66031;51.224;-0.164;2023-04-01T05:11:12;99343.38;;;17.42;37.63
57452;BME280;66031;51.224;-0.164;2023-04-01T05:13:35;99349.22;;;17.23;37.58
57452;BME280;66031;51.224;-0.164;2023-04-01T05:16:00;99349.45;;;17.19;37.59
57452;BME280;66031;51.224;-0.164;2023-04-01T05:18:25;99353.34;;;17.38;37.34
57452;BME280;66031;51.224;-0.164;2023-04-01T05:20:52;99354.79;;;17.34;37.38
57452;BME280;66031;51.224;-0.164;2023-04-01T05:23:17;99357.82;;;17.23;37.52
57452;BME280;66031;51.224;-0.164;2023-04-01T05:25:42;99363.13;;;17.37;37.34
57452;BME280;66031;51.224;-0.164;2023-04-01T05:28:07;99362.11;;;17.31;37.38
57452;BME280;66031;51.224;-0.164;2023-04-01T05:30:32;99366.85;;;17.73;37.45
57452;BME280;66031;51.224;-0.164;2023-04-01T05:32:57;99368.62;;;17.13;37.61
57452;BME280;66031;51.224;-0.164;2023-04-01T05:35:23;99368.79;;;16.87;37.99
57452;BME280;66031;51.224;-0.164;2023-04-01T05:37:48;99371.33;;;16.81;38.15
57452;BME280;66031;51.224;-0.164;2023-04-01T05:40:13;99373.44;;;16.95;38.33
57452;BME280;66031;51.224;-0.164;2023-04-01T05:42:39;99378.73;;;16.88;38.48
57452;BME280;66031;51.224;-0.164;2023-04-01T05:45:05;99375.84;;;16.66;38.49
57452;BME280;66031;51.224;-0.164;2023-04-01T05:47:29;99378.61;;;16.86;38.54
57452;BME280;66031;51.224;-0.164;2023-04-01T05:49:55;99384.44;;;16.62;38.61
57452;BME280;66031;51.224;-0.164;2023-04-01T05:52:25;99390.71;;;16.53;38.74
57452;BME280;66031;51.224;-0.164;2023-04-01T05:54:45;99395.54;;;16.67;38.59
57452;BME280;66031;51.224;-0.164;2023-04-01T05:57:11;99396.16;;;16.85;38.35
57452;BME280;66031;51.224;-0.164;2023-04-01T05:59:36;99401.15;;;16.87;38.30
57452;BME280;66031;51.224;-0.164;2023-04-01T06:02:02;99405.39;;;17.06;38.09
57452;BME280;66031;51.224;-0.164;2023-04-01T06:04:31;99410.34;;;16.99;38.27
57452;BME280;66031;51.224;-0.164;2023-04-01T06:06:52;99409.55;;;17.07;38.13
57452;BME280;66031;51.224;-0.164;2023-04-01T06:09:19;99411.53;;;17.01;38.26
57452;BME280;66031;51.224;-0.164;2023-04-01T06:11:55;99415.30;;;17.08;38.18
57452;BME280;66031;51.224;-0.164;2023-04-01T06:14:17;99416.82;;;17.25;38.00
57452;BME280;66031;51.224;-0.164;2023-04-01T06:16:43;99422.90;;;16.88;37.82
57452;BME280;66031;51.224;-0.164;2023-04-01T06:19:05;99425.71;;;17.54;37.60
57452;BME280;66031;51.224;-0.164;2023-04-01T06:21:37;99429.68;;;17.44;37.48
57452;BME280;66031;51.224;-0.164;2023-04-01T06:23:58;99432.96;;;17.77;37.34
57452;BME280;66031;51.224;-0.164;2023-04-01T06:26:24;99437.26;;;17.43;37.15
57452;BME280;66031;51.224;-0.164;2023-04-01T06:28:49;99433.77;;;17.57;37.34
57452;BME280;66031;51.224;-0.164;2023-04-01T06:31:10;99438.69;;;17.90;37.24
57452;BME280;66031;51.224;-0.164;2023-04-01T06:33:39;99442.67;;;17.70;37.15
57452;BME280;66031;51.224;-0.164;2023-04-01T06:36:05;99442.26;;;17.43;37.28
57452;BME280;66031;51.224;-0.164;2023-04-01T06:38:31;99448.79;;;17.88;37.00
57452;BME280;66031;51.224;-0.164;2023-04-01T06:41:00;99449.73;;;18.11;36.95
57452;BME280;66031;51.224;-0.164;2023-04-01T06:43:17;99451.77;;;17.59;37.06
57452;BME280;66031;51.224;-0.164;2023-04-01T06:45:41;99455.96;;;17.58;37.04
57452;BME280;66031;51.224;-0.164;2023-04-01T06:48:13;99454.73;;;18.02;36.80
57452;BME280;66031;51.224;-0.164;2023-04-01T06:50:32;99456.50;;;18.06;36.80
57452;BME280;66031;51.224;-0.164;2023-04-01T06:53:00;99458.94;;;18.01;36.87
57452;BME280;66031;51.224;-0.164;2023-04-01T06:55:26;99462.59;;;18.00;36.88
57452;BME280;66031;51.224;-0.164;2023-04-01T06:57:47;99464.78;;;17.76;36.88
57452;BME280;66031;51.224;-0.164;2023-04-01T07:00:14;99467.90;;;18.14;36.70
57452;BME280;66031;51.224;-0.164;2023-04-01T07:02:41;99472.32;;;18.32;36.77
57452;BME280;66031;51.224;-0.164;2023-04-01T07:05:01;99473.73;;;17.90;36.70
57452;BME280;66031;51.224;-0.164;2023-04-01T07:07:30;99479.81;;;17.85;36.95
57452;BME280;66031;51.224;-0.164;2023-04-01T07:09:53;99485.23;;;17.85;36.91
57452;BME280;66031;51.224;-0.164;2023-04-01T07:12:21;99487.07;;;17.84;36.91
57452;BME280;66031;51.224;-0.164;2023-04-01T07:14:42;99489.15;;;18.04;36.94
57452;BME280;66031;51.224;-0.164;2023-04-01T07:17:11;99492.75;;;17.96;36.83
57452;BME280;66031;51.224;-0.164;2023-04-01T07:19:34;99495.65;;;18.03;36.73
57452;BME280;66031;51.224;-0.164;2023-04-01T07:22:00;99497.96;;;17.91;36.89
57452;BME280;66031;51.224;-0.164;2023-04-01T07:24:25;99499.89;;;18.15;36.91
57452;BME280;66031;51.224;-0.164;2023-04-01T07:26:54;99504.74;;;17.87;36.89
57452;BME280;66031;51.224;-0.164;2023-04-01T07:29:14;99508.35;;;18.12;36.92
57452;BME280;66031;51.224;-0.164;2023-04-01T07:31:50;99513.52;;;17.86;37.14
57452;BME280;66031;51.224;-0.164;2023-04-01T07:34:09;99515.95;;;18.10;37.00
57452;BME280;66031;51.224;-0.164;2023-04-01T07:36:33;99517.22;;;17.91;37.03
57452;BME280;66031;51.224;-0.164;2023-04-01T07:39:01;99521.17;;;17.88;36.95
57452;BME280;66031;51.224;-0.164;2023-04-01T07:41:25;99521.13;;;18.13;37.14
57452;BME280;66031;51.224;-0.164;2023-04-01T07:43:54;99524.29;;;17.90;37.08
57452;BME280;66031;51.224;-0.164;2023-04-01T07:46:18;99528.23;;;18.05;36.90
57452;BME280;66031;51.224;-0.164;2023-04-01T07:48:41;99532.76;;;17.89;37.03
57452;BME280;66031;51.224;-0.164;2023-04-01T07:51:02;99536.10;;;17.95;36.99
57452;BME280;66031;51.224;-0.164;2023-04-01T07:53:31;99540.51;;;17.98;37.37
57452;BME280;66031;51.224;-0.164;2023-04-01T07:55:56;99546.32;;;17.66;37.91
57452;BME280;66031;51.224;-0.164;2023-04-01T07:58:22;99547.38;;;17.74;37.74
57452;BME280;66031;51.224;-0.164;2023-04-01T08:00:47;99552.86;;;18.08;37.56
57452;BME280;66031;51.224;-0.164;2023-04-01T08:03:18;99555.44;;;17.55;37.64
57452;BME280;66031;51.224;-0.164;2023-04-01T08:05:40;99560.10;;;18.11;37.57
57452;BME280;66031;51.224;-0.164;2023-04-01T08:08:05;99562.56;;;17.90;37.47
57452;BME280;66031;51.224;-0.164;2023-04-01T08:10:26;99567.82;;;17.93;37.50
57452;BME280;66031;51.224;-0.164;2023-04-01T08:12:54;99571.00;;;17.65;37.55
57452;BME280;66031;51.224;-0.164;2023-04-01T08:15:18;99573.20;;;18.13;37.47
57452;BME280;66031;51.224;-0.164;2023-04-01T08:17:46;99575.76;;;17.77;37.44
57452;BME280;66031;51.224;-0.164;2023-04-01T08:20:17;99580.49;;;17.77;37.46
57452;BME280;66031;51.224;-0.164;2023-04-01T08:22:33;99586.72;;;18.25;37.43
57452;BME280;66031;51.224;-0.164;2023-04-01T08:24:56;99584.91;;;17.77;37.46
57452;BME280;66031;51.224;-0.164;2023-04-01T08:27:23;99589.65;;;18.21;37.52
57452;BME280;66031;51.224;-0.164;2023-04-01T08:29:48;99592.17;;;18.21;37.55
57452;BME280;66031;51.224;-0.164;2023-04-01T08:32:14;99596.94;;;17.91;37.67
57452;BME280;66031;51.224;-0.164;2023-04-01T08:34:38;99601.73;;;18.17;37.69
57452;BME280;66031;51.224;-0.164;2023-04-01T08:37:04;99603.11;;;17.91;37.71
57452;BME280;66031;51.224;-0.164;2023-04-01T08:39:30;99605.12;;;17.85;37.80
57452;BME280;66031;51.224;-0.164;2023-04-01T08:42:00;99605.37;;;18.07;37.74
57452;BME280;66031;51.224;-0.164;2023-04-01T08:44:31;99608.27;;;17.82;38.12
57452;BME280;66031;51.224;-0.164;2023-04-01T08:49:17;99612.21;;;17.48;38.09
57452;BME280;66031;51.224;-0.164;2023-04-01T08:51:47;99617.18;;;17.54;38.06
57452;BME280;66031;51.224;-0.164;2023-04-01T08:54:10;99618.42;;;18.08;37.92
57452;BME280;66031;51.224;-0.164;2023-04-01T08:56:27;99620.85;;;17.68;38.06
57452;BME280;66031;51.224;-0.164;2023-04-01T08:58:57;99621.91;;;17.37;38.33
57452;BME280;66031;51.224;-0.164;2023-04-01T09:01:26;99623.58;;;17.57;38.35
57452;BME280;66031;51.224;-0.164;2023-04-01T09:03:49;99628.93;;;17.74;38.41
57452;BME280;66031;51.224;-0.164;2023-04-01T09:08:38;99634.98;;;17.78;38.34
57452;BME280;66031;51.224;-0.164;2023-04-01T09:11:02;99637.97;;;17.76;38.39
57452;BME280;66031;51.224;-0.164;2023-04-01T09:13:33;99641.33;;;17.56;38.18
57452;BME280;66031;51.224;-0.164;2023-04-01T09:16:03;99643.98;;;17.74;38.43
57452;BME280;66031;51.224;-0.164;2023-04-01T09:18:19;99646.64;;;17.93;38.10
57452;BME280;66031;51.224;-0.164;2023-04-01T09:20:52;99646.32;;;17.90;38.05
57452;BME280;66031;51.224;-0.164;2023-04-01T09:23:13;99650.08;;;17.90;38.13
57452;BME280;66031;51.224;-0.164;2023-04-01T09:25:38;99650.79;;;17.60;38.28
57452;BME280;66031;51.224;-0.164;2023-04-01T09:27:57;99654.33;;;17.93;38.08
57452;BME280;66031;51.224;-0.164;2023-04-01T09:30:31;99654.46;;;17.26;38.36
57452;BME280;66031;51.224;-0.164;2023-04-01T09:35:21;99656.98;;;17.33;38.09
57452;BME280;66031;51.224;-0.164;2023-04-01T09:37:39;99660.26;;;17.88;38.01
57452;BME280;66031;51.224;-0.164;2023-04-01T09:40:13;99660.94;;;17.84;38.00
57452;BME280;66031;51.224;-0.164;2023-04-01T09:42:39;99665.09;;;17.71;38.23
57452;BME280;66031;51.224;-0.164;2023-04-01T09:44:56;99668.03;;;17.46;38.25
57452;BME280;66031;51.224;-0.164;2023-04-01T09:47:24;99671.66;;;17.51;38.18
57452;BME280;66031;51.224;-0.164;2023-04-01T09:49:55;99676.85;;;17.40;38.29
57452;BME280;66031;51.224;-0.164;2023-04-01T09:52:18;99678.52;;;17.66;38.20
57452;BME280;66031;51.224;-0.164;2023-04-01T09:54:44;99680.88;;;17.37;38.32
57452;BME280;66031;51.224;-0.164;2023-04-01T10:01:57;99688.37;;;17.57;38.26
57452;BME280;66031;51.224;-0.164;2023-04-01T10:14:07;99707.57;;;17.48;38.31
57452;BME280;66031;51.224;-0.164;2023-04-01T10:16:35;99713.92;;;17.50;38.27
57452;BME280;66031;51.224;-0.164;2023-04-01T10:23:47;99723.26;;;17.58;38.08
57452;BME280;66031;51.224;-0.164;2023-04-01T10:31:03;99731.41;;;17.51;38.15
57452;BME280;66031;51.224;-0.164;2023-04-01T10:35:51;99742.96;;;16.95;38.22
57452;BME280;66031;51.224;-0.164;2023-04-01T10:43:15;99749.13;;;17.42;38.17
57452;BME280;66031;51.224;-0.164;2023-04-01T11:00:08;99780.56;;;17.35;38.15
57452;BME280;66031;51.224;-0.164;2023-04-01T11:12:19;99782.58;;;17.30;38.15
57452;BME280;66031;51.224;-0.164;2023-04-01T11:14:41;99782.87;;;17.30;38.13
57452;BME280;66031;51.224;-0.164;2023-04-01T11:17:10;99783.50;;;17.40;37.99
57452;BME280;66031;51.224;-0.164;2023-04-01T11:19:31;99783.05;;;17.29;37.78
57452;BME280;66031;51.224;-0.164;2023-04-01T11:21:54;99791.82;;;17.26;37.80
57452;BME280;66031;51.224;-0.164;2023-04-01T11:24:16;99789.66;;;17.44;37.87
57452;BME280;66031;51.224;-0.164;2023-04-01T11:26:33;99790.81;;;17.32;38.00
57452;BME280;66031;51.224;-0.164;2023-04-01T11:29:08;99793.25;;;17.34;37.99
57452;BME280;66031;51.224;-0.164;2023-04-01T11:31:35;99794.99;;;17.27;38.05
57452;BME280;66031;51.224;-0.164;2023-04-01T11:33:54;99799.33;;;17.27;38.05
57452;BME280;66031;51.224;-0.164;2023-04-01T11:36:25;99798.55;;;17.18;38.15
57452;BME280;66031;51.224;-0.164;2023-04-01T11:38:49;99804.98;;;17.42;38.15
57452;BME280;66031;51.224;-0.164;2023-04-01T11:41:15;99811.01;;;17.24;38.07
57452;BME280;66031;51.224;-0.164;2023-04-01T11:43:36;99817.96;;;17.25;38.03
57452;BME280;66031;51.224;-0.164;2023-04-01T11:46:01;99823.30;;;17.25;38.01
57452;BME280;66031;51.224;-0.164;2023-04-01T11:48:36;99824.04;;;17.24;38.04
57452;BME280;66031;51.224;-0.164;2023-04-01T11:50:59;99828.38;;;17.23;38.04
57452;BME280;66031;51.224;-0.164;2023-04-01T11:53:23;99830.98;;;17.26;37.98
57452;BME280;66031;51.224;-0.164;2023-04-01T11:55:46;99833.79;;;17.19;38.05
57452;BME280;66031;51.224;-0.164;2023-04-01T11:58:11;99839.47;;;17.48;37.97
57452;BME280;66031;51.224;-0.164;2023-04-01T12:00:35;99837.27;;;17.28;37.92
57452;BME280;66031;51.224;-0.164;2023-04-01T12:03:04;99841.69;;;17.48;37.96
57452;BME280;66031;51.224;-0.164;2023-04-01T12:05:30;99845.24;;;17.26;37.90
57452;BME280;66031;51.224;-0.164;2023-04-01T12:07:57;99849.46;;;17.24;37.91
57452;BME280;66031;51.224;-0.164;2023-04-01T12:10:17;99854.85;;;17.27;37.87
57452;BME280;66031;51.224;-0.164;2023-04-01T12:12:38;99857.35;;;17.22;37.93
57452;BME280;66031;51.224;-0.164;2023-04-01T12:15:10;99861.42;;;17.21;37.93
57452;BME280;66031;51.224;-0.164;2023-04-01T12:17:32;99863.53;;;17.64;37.70
57452;BME280;66031;51.224;-0.164;2023-04-01T12:19:55;99859.81;;;17.52;37.49
57452;BME280;66031;51.224;-0.164;2023-04-01T12:22:28;99865.30;;;17.60;37.69
57452;BME280;66031;51.224;-0.164;2023-04-01T12:24:46;99865.51;;;17.29;37.77
57452;BME280;66031;51.224;-0.164;2023-04-01T12:29:49;99873.53;;;17.05;38.11
57452;BME280;66031;51.224;-0.164;2023-04-01T12:32:01;99875.33;;;17.18;37.93
57452;BME280;66031;51.224;-0.164;2023-04-01T12:34:42;99877.69;;;17.16;37.93
57452;BME280;66031;51.224;-0.164;2023-04-01T12:36:56;99883.36;;;17.72;37.86
57452;BME280;66031;51.224;-0.164;2023-04-01T12:39:26;99887.30;;;17.26;37.97
57452;BME280;66031;51.224;-0.164;2023-04-01T12:41:42;99886.98;;;17.62;38.07
57452;BME280;66031;51.224;-0.164;2023-04-01T12:44:13;99891.49;;;17.37;38.08
57452;BME280;66031;51.224;-0.164;2023-04-01T12:46:34;99894.28;;;17.07;38.14
57452;BME280;66031;51.224;-0.164;2023-04-01T12:49:18;99898.08;;;17.02;38.20
57452;BME280;66031;51.224;-0.164;2023-04-01T12:51:29;99901.60;;;16.98;38.29
57452;BME280;66031;51.224;-0.164;2023-04-01T12:56:14;99907.24;;;17.06;38.53
57452;BME280;66031;51.224;-0.164;2023-04-01T13:01:21;99915.95;;;17.03;38.74
57452;BME280;66031;51.224;-0.164;2023-04-01T13:03:39;99919.07;;;17.25;38.79
57452;BME280;66031;51.224;-0.164;2023-04-01T13:06:02;99919.87;;;17.11;38.98
57452;BME280;66031;51.224;-0.164;2023-04-01T13:08:28;99927.96;;;17.23;38.98
57452;BME280;66031;51.224;-0.164;2023-04-01T13:10:59;99931.39;;;17.10;38.88
57452;BME280;66031;51.224;-0.164;2023-04-01T13:13:19;99935.01;;;17.19;39.01
57452;BME280;66031;51.224;-0.164;2023-04-01T13:15:37;99938.96;;;17.08;38.86
57452;BME280;66031;51.224;-0.164;2023-04-01T13:18:07;99938.03;;;16.72;38.27
57452;BME280;66031;51.224;-0.164;2023-04-01T13:20:33;99942.50;;;17.88;37.52
57452;BME280;66031;51.224;-0.164;2023-04-01T13:22:56;99944.15;;;17.66;38.43
57452;BME280;66031;51.224;-0.164;2023-04-01T13:25:21;99941.83;;;17.82;38.74
57452;BME280;66031;51.224;-0.164;2023-04-01T13:27:41;99945.43;;;17.53;39.02
57452;BME280;66031;51.224;-0.164;2023-04-01T13:32:35;99957.98;;;17.49;39.13
57452;BME280;66031;51.224;-0.164;2023-04-01T13:35:05;99958.05;;;17.23;39.25
57452;BME280;66031;51.224;-0.164;2023-04-01T13:37:30;99962.22;;;17.18;39.30
57452;BME280;66031;51.224;-0.164;2023-04-01T13:39:57;99964.99;;;17.16;39.23
57452;BME280;66031;51.224;-0.164;2023-04-01T13:42:19;99967.25;;;17.12;39.30
57452;BME280;66031;51.224;-0.164;2023-04-01T13:44:40;99968.79;;;17.06;39.32
57452;BME280;66031;51.224;-0.164;2023-04-01T13:47:20;99972.27;;;17.07;39.31
57452;BME280;66031;51.224;-0.164;2023-04-01T13:49:45;99974.00;;;17.16;39.15
57452;BME280;66031;51.224;-0.164;2023-04-01T13:54:29;99979.23;;;17.10;39.25
57452;BME280;66031;51.224;-0.164;2023-04-01T13:56:50;99984.24;;;17.08;39.34
57452;BME280;66031;51.224;-0.164;2023-04-01T14:01:41;99989.52;;;17.05;39.34